Time;durP1;ratioP1;P1;durP2;ratioP2;P2;SDS_P1;SDS_P2;PMS_P1;PMS_P2;Temp;Humidity;BMP_temperature;BMP_pressure;BME280_temperature;BME280_humidity;BME280_pressure;Samples;Min_cycle;Max_cycle;Signal;HPM_P1;HPM_P2
2022/06/05 00:00:53;;;;;;;69.67;10.00;;;21.10;81.40;;;;;;4919300;29;20158;-86
2022/06/05 00:03:49;;;;;;;70.90;8.37;;;21.20;78.80;;;;;;4919556;29;20730;-86
2022/06/05 00:06:37;;;;;;;68.10;8.20;;;21.10;78.60;;;;;;4919415;29;20458;-86
2022/06/05 00:09:19;;;;;;;68.70;7.30;;;21.00;83.70;;;;;;4918838;29;20391;-86
2022/06/05 00:12:09;;;;;;;68.43;7.10;;;21.00;82.70;;;;;;4902683;29;20425;-86
2022/06/05 00:14:39;;;;;;;68.87;7.83;;;20.80;87.30;;;;;;4902953;29;20416;-86
2022/06/05 00:17:11;;;;;;;67.57;7.40;;;20.70;91.80;;;;;;4918585;29;20441;-86
2022/06/05 00:19:43;;;;;;;67.93;7.10;;;20.80;89.80;;;;;;4901748;29;20963;-86
2022/06/05 00:22:09;;;;;;;68.97;8.20;;;20.80;91.80;;;;;;4919746;29;20402;-86
2022/06/05 00:24:35;;;;;;;67.80;7.80;;;20.70;91.40;;;;;;4902097;29;20425;-86
2022/06/05 00:27:11;;;;;;;68.60;7.80;;;20.60;93.00;;;;;;4901567;29;20538;-86
2022/06/05 00:29:52;;;;;;;69.57;8.40;;;20.60;93.30;;;;;;4918689;29;20869;-86
2022/06/05 00:32:42;;;;;;;71.67;7.40;;;20.70;89.80;;;;;;4918819;29;20395;-86
2022/06/05 00:35:11;;;;;;;69.40;8.60;;;20.70;91.80;;;;;;4901776;29;20821;-86
2022/06/05 00:37:49;;;;;;;68.90;8.40;;;20.70;91.50;;;;;;4902412;29;20813;-86
2022/06/05 00:40:26;;;;;;;68.87;9.10;;;20.60;92.10;;;;;;4901653;29;20769;-86
2022/06/05 00:42:53;;;;;;;69.43;10.70;;;20.60;93.50;;;;;;4901397;29;20761;-86
2022/06/05 00:45:19;;;;;;;69.50;9.53;;;20.60;93.10;;;;;;4918330;29;20420;-86
2022/06/05 00:47:46;;;;;;;68.20;7.73;;;20.70;90.60;;;;;;4918636;29;20402;-86
2022/06/05 00:50:22;;;;;;;68.67;9.80;;;20.70;91.10;;;;;;4918378;29;20471;-86
2022/06/05 00:52:53;;;;;;;69.50;10.13;;;20.60;92.60;;;;;;4918596;29;20394;-86
2022/06/05 00:55:19;;;;;;;68.30;9.67;;;20.60;92.30;;;;;;4902023;29;20444;-85
2022/06/05 00:57:47;;;;;;;74.53;12.03;;;20.60;94.30;;;;;;4918813;29;20908;-86
2022/06/05 01:00:20;;;;;;;70.40;10.30;;;20.60;92.70;;;;;;4918341;29;20405;-86
2022/06/05 01:02:51;;;;;;;69.67;10.87;;;20.60;92.90;;;;;;4901704;29;20412;-86
2022/06/05 01:05:19;;;;;;;69.30;11.57;;;20.60;93.40;;;;;;4918179;29;20437;-86
2022/06/05 01:07:46;;;;;;;69.67;11.57;;;20.50;94.70;;;;;;4901166;29;20564;-86
2022/06/05 01:10:13;;;;;;;68.93;10.80;;;20.50;94.00;;;;;;4901342;29;20421;-86
2022/06/05 01:13:01;;;;;;;68.93;10.73;;;20.50;94.10;;;;;;4900964;29;20787;-86
2022/06/05 01:15:55;;;;;;;70.50;12.80;;;20.40;95.00;;;;;;4900877;29;20959;-86
2022/06/05 01:18:37;;;;;;;69.00;10.57;;;20.40;96.30;;;;;;4917902;29;20424;-86
2022/06/05 01:21:20;;;;;;;70.23;11.17;;;20.30;97.10;;;;;;4917895;29;20405;-86
2022/06/05 01:23:45;;;;;;;70.50;11.37;;;20.30;97.70;;;;;;4901058;29;20397;-86
2022/06/05 01:26:32;;;;;;;69.63;12.37;;;20.20;98.90;;;;;;4900972;29;20431;-86
2022/06/05 01:29:26;;;;;;;71.67;12.13;;;20.20;98.60;;;;;;4900858;29;20221;-86
2022/06/05 01:31:57;;;;;;;70.37;12.00;;;20.10;99.10;;;;;;4901859;29;20404;-85
2022/06/05 01:34:47;;;;;;;69.40;12.20;;;20.00;99.90;;;;;;4900740;29;20396;-85
2022/06/05 01:37:19;;;;;;;68.63;12.33;;;20.10;99.70;;;;;;4901059;29;20894;-85
2022/06/05 01:39:56;;;;;;;69.50;11.37;;;20.00;99.70;;;;;;4917774;29;20391;-85
2022/06/05 01:42:44;;;;;;;68.77;10.80;;;20.00;99.60;;;;;;4919294;29;20396;-86
2022/06/05 01:45:19;;;;;;;68.63;10.23;;;20.10;99.20;;;;;;4917542;29;20473;-85
2022/06/05 01:47:54;;;;;;;70.10;12.97;;;20.10;99.40;;;;;;4900996;29;20404;-85
2022/06/05 01:50:27;;;;;;;68.67;12.03;;;20.00;99.90;;;;;;4918060;29;20807;-86
2022/06/05 01:52:56;;;;;;;68.30;10.43;;;20.00;99.90;;;;;;4900978;29;20429;-86
2022/06/05 01:55:25;;;;;;;72.47;11.67;;;20.00;99.90;;;;;;4901006;29;21012;-86
2022/06/05 01:57:54;;;;;;;68.53;10.87;;;20.00;99.70;;;;;;4900488;29;20433;-86
2022/06/05 02:00:22;;;;;;;70.00;11.30;;;20.00;99.30;;;;;;4917047;29;20410;-86
2022/06/05 02:02:59;;;;;;;68.67;10.00;;;20.00;99.90;;;;;;4900567;29;20417;-85
2022/06/05 02:05:44;;;;;;;68.87;10.50;;;20.00;98.60;;;;;;4900754;29;20434;-86
2022/06/05 02:08:33;;;;;;;69.40;10.23;;;20.00;99.10;;;;;;4900289;29;20925;-86
2022/06/05 02:11:12;;;;;;;67.80;10.33;;;19.90;99.00;;;;;;4900724;29;20410;-86
2022/06/05 02:13:38;;;;;;;68.07;9.70;;;19.80;99.70;;;;;;4900549;29;20444;-86
2022/06/05 02:16:04;;;;;;;69.00;9.13;;;19.80;99.40;;;;;;4900390;29;20481;-86
2022/06/05 02:18:31;;;;;;;68.50;9.00;;;19.80;99.00;;;;;;4899951;29;20261;-86
2022/06/05 02:20:57;;;;;;;67.40;8.87;;;19.90;97.20;;;;;;4917048;29;20415;-86
2022/06/05 02:23:27;;;;;;;68.87;8.57;;;19.90;98.10;;;;;;4917460;29;20413;-86
2022/06/05 02:25:54;;;;;;;68.27;9.10;;;19.90;97.40;;;;;;4917171;29;20688;-85
2022/06/05 02:28:21;;;;;;;68.43;8.87;;;19.80;96.90;;;;;;4917156;29;20417;-86
2022/06/05 02:31:09;;;;;;;68.90;9.60;;;19.80;95.80;;;;;;4917487;29;20428;-86
2022/06/05 02:33:53;;;;;;;66.60;8.03;;;19.70;97.20;;;;;;4900539;29;20414;-86
2022/06/05 02:36:36;;;;;;;68.40;8.80;;;19.60;96.60;;;;;;4900503;29;20449;-85
2022/06/05 02:39:28;;;;;;;68.20;8.40;;;19.60;98.20;;;;;;4917287;29;20481;-86
2022/06/05 02:42:03;;;;;;;67.63;8.60;;;19.60;98.10;;;;;;4917190;29;20729;-86
2022/06/05 02:44:44;;;;;;;67.07;8.13;;;19.60;99.30;;;;;;4917415;29;20435;-86
2022/06/05 02:47:31;;;;;;;68.37;9.70;;;19.70;97.90;;;;;;4917082;29;20897;-86
2022/06/05 02:50:26;;;;;;;67.20;7.83;;;19.50;99.90;;;;;;4917487;29;20738;-86
2022/06/05 02:52:59;;;;;;;67.37;8.60;;;19.60;97.50;;;;;;4917076;29;20483;-86
2022/06/05 02:55:25;;;;;;;66.90;8.43;;;19.60;98.30;;;;;;4917192;29;20457;-86
2022/06/05 02:57:51;;;;;;;70.17;9.77;;;19.50;99.90;;;;;;4899992;29;20448;-86
2022/06/05 03:00:28;;;;;;;68.00;9.33;;;19.50;99.60;;;;;;4899988;29;20594;-86
2022/06/05 03:05:39;;;;;;;67.60;8.50;;;19.50;98.40;;;;;;4917449;29;20786;-86
2022/06/05 03:08:07;;;;;;;68.27;8.63;;;19.40;99.20;;;;;;4917484;29;20889;-86
2022/06/05 03:10:33;;;;;;;67.57;7.90;;;19.40;99.20;;;;;;4917208;29;20417;-86
2022/06/05 03:13:01;;;;;;;66.50;8.20;;;19.40;99.90;;;;;;4902668;29;20880;-86
2022/06/05 03:15:27;;;;;;;67.57;8.10;;;19.40;99.90;;;;;;4920369;29;20183;-86
2022/06/05 03:17:53;;;;;;;66.97;7.57;;;19.50;99.00;;;;;;4903227;29;20471;-86
2022/06/05 03:20:19;;;;;;;67.77;8.13;;;19.50;98.20;;;;;;5001305;23;20579;-87
2022/06/05 03:22:45;;;;;;;69.73;9.63;;;19.50;99.20;;;;;;4938624;29;20439;-86
2022/06/05 03:25:16;;;;;;;66.97;8.50;;;19.50;99.90;;;;;;4938454;29;20185;-86
2022/06/05 03:27:42;;;;;;;68.17;8.40;;;19.40;99.90;;;;;;4938824;29;20377;-86
2022/06/05 03:30:08;;;;;;;68.33;9.63;;;19.50;99.20;;;;;;4938402;29;20416;-86
2022/06/05 03:32:34;;;;;;;67.07;7.97;;;19.40;99.90;;;;;;4938408;29;20174;-86
2022/06/05 03:34:59;;;;;;;67.90;8.93;;;19.30;99.90;;;;;;4938298;29;20408;-86
2022/06/05 03:37:25;;;;;;;66.57;7.70;;;19.30;99.40;;;;;;4938232;29;20241;-86
2022/06/05 03:39:51;;;;;;;67.60;8.70;;;19.30;98.60;;;;;;4938310;29;20174;-86
2022/06/05 03:42:17;;;;;;;67.23;8.20;;;19.30;98.40;;;;;;4938526;29;20197;-87
2022/06/05 03:44:43;;;;;;;68.57;8.17;;;19.40;97.80;;;;;;4938165;29;20438;-87
2022/06/05 03:47:10;;;;;;;68.60;7.40;;;19.50;96.40;;;;;;4938056;29;20181;-86
2022/06/05 03:49:36;;;;;;;67.17;8.10;;;19.40;97.30;;;;;;4938390;29;20415;-87
2022/06/05 03:52:07;;;;;;;67.10;8.00;;;19.50;96.10;;;;;;4938062;29;20409;-87
2022/06/05 03:54:33;;;;;;;66.57;7.27;;;19.50;95.50;;;;;;4938097;29;20413;-86
2022/06/05 03:57:00;;;;;;;67.47;8.00;;;19.50;95.70;;;;;;4937849;29;20480;-87
2022/06/05 03:59:26;;;;;;;66.13;6.67;;;19.60;95.70;;;;;;4938186;29;20411;-87
2022/06/05 04:01:52;;;;;;;67.10;7.67;;;19.60;94.00;;;;;;4937860;29;20405;-87
2022/06/05 04:04:18;;;;;;;67.47;8.07;;;19.60;93.80;;;;;;4937900;29;20161;-86
2022/06/05 04:06:43;;;;;;;66.97;7.30;;;19.60;93.90;;;;;;4937607;29;20281;-86
2022/06/05 04:09:09;;;;;;;67.47;8.63;;;19.60;94.50;;;;;;4937769;29;20173;-86
2022/06/05 04:11:37;;;;;;;66.93;7.63;;;19.70;96.00;;;;;;4937675;29;20177;-86
2022/06/05 04:14:04;;;;;;;67.50;8.50;;;19.80;95.10;;;;;;4937597;29;20932;-86
2022/06/05 04:16:31;;;;;;;66.50;7.60;;;19.80;94.70;;;;;;4937483;29;20454;-86
2022/06/05 04:18:58;;;;;;;66.17;7.37;;;19.80;94.40;;;;;;4937398;29;20408;-87
2022/06/05 04:21:30;;;;;;;67.47;8.30;;;19.80;93.00;;;;;;4937557;29;20405;-87
2022/06/05 04:23:57;;;;;;;67.77;8.20;;;19.80;92.00;;;;;;4937502;29;20400;-87
2022/06/05 04:26:31;;;;;;;66.77;7.60;;;19.70;92.10;;;;;;4937364;29;20436;-86
2022/06/05 04:28:57;;;;;;;67.50;7.60;;;19.70;91.50;;;;;;4937428;29;20425;-87
2022/06/05 04:31:31;;;;;;;67.90;7.10;;;19.70;91.40;;;;;;4937590;29;20971;-87
2022/06/05 04:34:00;;;;;;;66.90;7.20;;;19.80;90.90;;;;;;4937340;29;20397;-87
2022/06/05 04:36:27;;;;;;;66.70;7.47;;;19.70;90.50;;;;;;4920255;29;20465;-87
2022/06/05 04:38:53;;;;;;;68.20;8.30;;;19.70;90.90;;;;;;4937158;29;20411;-87
2022/06/05 04:41:20;;;;;;;67.27;7.77;;;19.80;90.10;;;;;;4937382;29;20410;-86
2022/06/05 04:43:47;;;;;;;67.70;7.23;;;19.80;90.00;;;;;;4937346;29;20402;-86
2022/06/05 04:46:12;;;;;;;66.80;8.40;;;19.80;89.60;;;;;;4937129;29;20436;-86
2022/06/05 04:48:41;;;;;;;66.83;7.23;;;19.80;90.00;;;;;;4937133;29;20408;-86
2022/06/05 04:51:09;;;;;;;67.50;7.83;;;19.70;92.70;;;;;;4919956;29;20578;-86
2022/06/05 04:53:35;;;;;;;70.53;7.40;;;19.70;93.10;;;;;;4936944;29;20413;-86
2022/06/05 04:56:07;;;;;;;67.57;8.33;;;19.80;93.30;;;;;;4937014;29;20979;-86
2022/06/05 04:58:33;;;;;;;67.50;7.87;;;19.80;94.00;;;;;;4936778;29;20412;-86
2022/06/05 05:00:59;;;;;;;66.60;7.30;;;19.90;94.40;;;;;;4936952;29;20410;-86
2022/06/05 05:03:25;;;;;;;68.13;8.67;;;19.90;94.00;;;;;;4937059;29;20183;-86
2022/06/05 05:05:51;;;;;;;69.60;8.63;;;19.90;94.40;;;;;;4936901;29;20436;-86
2022/06/05 05:08:16;;;;;;;67.00;7.43;;;19.90;94.70;;;;;;4936645;29;20418;-86
2022/06/05 05:10:43;;;;;;;68.30;8.27;;;19.90;93.60;;;;;;4937179;29;20173;-86
2022/06/05 05:13:08;;;;;;;67.40;8.30;;;19.90;93.70;;;;;;4936881;29;20169;-86
2022/06/05 05:15:34;;;;;;;66.80;7.60;;;19.90;92.50;;;;;;4936612;29;20442;-86
2022/06/05 05:18:00;;;;;;;66.50;7.87;;;19.90;92.10;;;;;;4936466;29;20188;-86
2022/06/05 05:20:26;;;;;;;66.77;7.93;;;19.90;92.10;;;;;;4936379;29;20914;-86
2022/06/05 05:22:52;;;;;;;68.83;7.80;;;20.00;92.30;;;;;;4936480;29;20176;-86
2022/06/05 05:25:18;;;;;;;68.07;7.37;;;19.90;90.80;;;;;;4936455;29;20507;-87
2022/06/05 05:27:44;;;;;;;68.07;7.97;;;19.80;90.50;;;;;;4919305;29;20522;-87
2022/06/05 05:30:11;;;;;;;67.47;7.40;;;19.90;91.00;;;;;;4937107;29;20610;-86
2022/06/05 05:32:38;;;;;;;67.17;7.37;;;19.80;90.40;;;;;;4936223;29;20809;-86
2022/06/05 05:35:05;;;;;;;67.77;7.63;;;19.90;90.60;;;;;;4935635;29;20498;-86
2022/06/05 05:37:31;;;;;;;69.30;6.57;;;19.80;91.30;;;;;;4919182;29;20995;-86
2022/06/05 05:42:41;;;;;;;67.17;7.27;;;19.90;90.80;;;;;;4936501;29;20451;-87
2022/06/05 05:45:08;;;;;;;66.90;7.60;;;19.80;92.00;;;;;;4918956;29;20445;-87
2022/06/05 05:47:37;;;;;;;68.30;7.60;;;19.80;92.20;;;;;;4936044;29;20193;-86
2022/06/05 05:50:15;;;;;;;67.07;7.73;;;19.90;92.00;;;;;;4936061;29;20401;-86
2022/06/05 05:52:42;;;;;;;66.60;8.17;;;19.90;91.70;;;;;;4936643;29;20407;-86
2022/06/05 05:55:11;;;;;;;66.90;7.77;;;19.80;93.40;;;;;;4936020;29;21027;-86
2022/06/05 05:57:37;;;;;;;67.27;8.10;;;19.80;93.20;;;;;;4936242;29;20472;-87
2022/06/05 06:00:04;;;;;;;68.60;8.93;;;19.90;93.60;;;;;;4936075;29;20406;-87
2022/06/05 06:02:30;;;;;;;66.70;8.07;;;20.00;92.90;;;;;;4918817;29;20172;-87
2022/06/05 06:04:56;;;;;;;66.67;8.27;;;20.00;92.70;;;;;;4918803;29;20555;-87
2022/06/05 06:07:22;;;;;;;66.80;8.83;;;20.00;95.20;;;;;;4935931;29;20199;-86
2022/06/05 06:09:48;;;;;;;70.23;8.50;;;20.20;93.50;;;;;;4935953;29;20169;-87
2022/06/05 06:12:13;;;;;;;68.10;9.37;;;20.10;93.50;;;;;;4935869;29;20224;-86
2022/06/05 06:14:40;;;;;;;67.80;9.30;;;20.20;93.40;;;;;;4935866;29;20457;-86
2022/06/05 06:17:06;;;;;;;67.60;9.87;;;20.10;94.70;;;;;;4935669;29;20196;-87
2022/06/05 06:19:31;;;;;;;67.10;8.30;;;20.10;95.00;;;;;;4918620;29;20437;-87
2022/06/05 06:22:00;;;;;;;71.60;10.60;;;20.10;94.80;;;;;;4935862;29;20164;-87
2022/06/05 06:24:25;;;;;;;66.87;9.80;;;20.10;95.60;;;;;;4935805;29;20161;-86
2022/06/05 06:26:51;;;;;;;68.40;10.97;;;20.10;95.70;;;;;;4935763;29;20986;-87
2022/06/05 06:29:17;;;;;;;67.23;9.97;;;20.10;95.50;;;;;;4936072;29;20177;-86
2022/06/05 06:31:43;;;;;;;68.97;9.40;;;20.10;95.80;;;;;;4935972;29;20257;-87
2022/06/05 06:34:10;;;;;;;67.00;10.33;;;20.10;95.90;;;;;;4918673;29;20226;-87
2022/06/05 06:36:36;;;;;;;69.13;15.80;;;20.00;96.40;;;;;;4935625;29;20464;-87
2022/06/05 06:39:02;;;;;;;69.00;14.40;;;20.00;97.20;;;;;;4935966;29;20483;-87
2022/06/05 06:41:28;;;;;;;68.50;11.67;;;20.10;98.20;;;;;;4935655;29;20406;-87
2022/06/05 06:43:54;;;;;;;74.20;13.30;;;20.10;98.10;;;;;;4935659;29;20431;-87
2022/06/05 06:46:20;;;;;;;72.43;17.20;;;20.10;98.30;;;;;;4937243;29;20191;-86
2022/06/05 06:48:47;;;;;;;68.70;13.90;;;20.20;99.40;;;;;;4939221;29;20412;-87
2022/06/05 06:51:14;;;;;;;69.30;11.90;;;20.20;98.10;;;;;;4939455;29;20408;-87
2022/06/05 06:53:40;;;;;;;69.27;14.20;;;20.30;96.80;;;;;;4939158;29;20401;-86
2022/06/05 06:56:14;;;;;;;69.90;16.37;;;20.30;98.20;;;;;;4938958;29;20460;-86
2022/06/05 06:58:41;;;;;;;69.87;13.67;;;20.30;98.70;;;;;;4938942;29;20403;-87
2022/06/05 07:01:08;;;;;;;68.17;10.57;;;20.40;96.30;;;;;;4939303;29;20392;-87
2022/06/05 07:03:34;;;;;;;69.47;12.50;;;20.40;96.70;;;;;;4939207;29;20417;-86
2022/06/05 07:06:07;;;;;;;69.20;11.80;;;20.50;96.80;;;;;;4938846;29;20468;-86
2022/06/05 07:08:34;;;;;;;67.67;10.00;;;20.70;96.90;;;;;;4938748;29;20488;-86
2022/06/05 07:11:00;;;;;;;68.00;10.83;;;20.70;96.20;;;;;;4939125;29;20764;-86
2022/06/05 07:13:26;;;;;;;68.63;10.50;;;20.80;95.30;;;;;;4939057;29;20971;-86
2022/06/05 07:15:52;;;;;;;68.20;9.67;;;20.70;95.40;;;;;;4938627;29;20460;-86
2022/06/05 07:18:19;;;;;;;68.93;12.50;;;20.80;95.50;;;;;;4938710;29;20426;-86
2022/06/05 07:20:45;;;;;;;67.73;9.60;;;20.90;94.90;;;;;;4938578;29;20469;-86
2022/06/05 07:23:12;;;;;;;67.87;9.80;;;21.00;94.90;;;;;;4938633;29;20917;-87
2022/06/05 07:25:45;;;;;;;68.27;9.80;;;20.90;94.50;;;;;;4938487;29;20431;-86
2022/06/05 07:28:11;;;;;;;70.40;12.07;;;20.90;95.00;;;;;;4939090;29;20388;-86
2022/06/05 07:30:37;;;;;;;68.00;9.50;;;21.00;95.50;;;;;;4938498;29;20411;-86
2022/06/05 07:33:02;;;;;;;72.00;9.40;;;21.20;94.00;;;;;;4938437;29;20172;-86
2022/06/05 07:35:28;;;;;;;67.80;9.07;;;21.30;89.20;;;;;;4938899;29;20189;-87
2022/06/05 07:37:54;;;;;;;68.57;9.60;;;21.20;91.00;;;;;;4921151;29;20575;-87
2022/06/05 07:40:19;;;;;;;68.47;9.60;;;21.20;91.70;;;;;;4938324;29;20551;-87
2022/06/05 07:42:45;;;;;;;67.27;10.30;;;21.30;92.70;;;;;;4938557;29;20169;-86
2022/06/05 07:45:14;;;;;;;67.60;9.57;;;21.40;93.20;;;;;;4938179;29;20183;-87
2022/06/05 07:47:41;;;;;;;68.40;9.50;;;21.50;91.00;;;;;;4938234;29;20172;-87
2022/06/05 07:50:07;;;;;;;68.43;11.20;;;21.50;94.10;;;;;;4921009;29;20954;-87
2022/06/05 07:55:17;;;;;;;70.30;12.77;;;21.60;96.50;;;;;;4938067;29;20432;-87
2022/06/05 07:57:43;;;;;;;70.20;11.60;;;21.70;96.90;;;;;;4921197;29;20454;-87
2022/06/05 08:00:11;;;;;;;70.67;13.10;;;21.80;96.30;;;;;;4938310;29;20247;-88
2022/06/05 08:02:38;;;;;;;69.07;12.70;;;21.80;98.50;;;;;;4920995;29;20180;-88
2022/06/05 08:05:04;;;;;;;69.57;12.60;;;21.80;99.90;;;;;;4920788;29;20444;-87
2022/06/05 08:07:31;;;;;;;68.90;10.80;;;21.60;97.60;;;;;;4938039;29;20428;-88
2022/06/05 08:09:58;;;;;;;70.90;14.07;;;21.40;97.40;;;;;;4938047;29;20780;-88
2022/06/05 08:12:29;;;;;;;72.63;10.90;;;21.50;99.90;;;;;;4938300;29;20415;-87
2022/06/05 08:15:10;;;;;;;69.27;12.80;;;21.30;97.60;;;;;;4937630;29;20421;-88
2022/06/05 08:17:37;;;;;;;71.17;16.27;;;21.30;99.40;;;;;;4937715;29;20444;-87
2022/06/05 08:20:04;;;;;;;69.77;13.63;;;21.10;99.90;;;;;;4937562;29;20503;-86
2022/06/05 08:22:30;;;;;;;70.47;14.30;;;21.10;99.90;;;;;;4937551;29;20437;-87
2022/06/05 08:24:55;;;;;;;70.67;14.67;;;21.00;99.90;;;;;;4937338;29;20443;-87
2022/06/05 08:27:24;;;;;;;70.37;16.10;;;21.00;99.90;;;;;;4920424;29;20176;-87
2022/06/05 08:29:51;;;;;;;70.50;17.03;;;20.90;99.90;;;;;;4937688;29;20169;-87
2022/06/05 08:32:18;;;;;;;69.87;16.10;;;20.80;99.90;;;;;;4937637;29;20492;-87
2022/06/05 08:34:44;;;;;;;70.23;14.80;;;20.80;99.90;;;;;;4937306;29;20910;-87
2022/06/05 08:43:03;;;;;;;70.07;14.50;;;20.90;99.90;;;;;;4937230;29;20397;-87
2022/06/05 08:45:53;;;;;;;71.37;15.30;;;21.00;99.90;;;;;;4919929;29;20433;-87
2022/06/05 08:48:36;;;;;;;69.17;12.57;;;21.00;99.90;;;;;;4928458;29;20970;-87
2022/06/05 08:51:22;;;;;;;69.50;13.60;;;20.90;99.90;;;;;;4937283;29;20468;-89
2022/06/05 08:54:17;;;;;;;68.70;13.93;;;21.10;99.90;;;;;;4937653;29;20397;-90
2022/06/05 09:00:16;;;;;;;71.23;22.00;;;21.00;99.90;;;;;;4936991;23;20482;-89
2022/06/05 09:09:44;;;;;;;74.70;30.97;;;20.40;99.90;;;;;;4936660;29;20476;-89
2022/06/05 09:12:16;;;;;;;73.00;28.47;;;20.40;99.90;;;;;;4937588;29;20503;-90
2022/06/05 09:15:11;;;;;;;73.37;26.70;;;20.40;99.90;;;;;;4921157;29;20401;-90
2022/06/05 09:17:42;;;;;;;73.27;30.93;;;20.30;99.90;;;;;;4917702;29;20460;-90
2022/06/05 09:20:13;;;;;;;73.43;28.93;;;20.30;99.90;;;;;;4998909;23;20858;-85
2022/06/05 09:22:57;;;;;;;74.47;23.57;;;20.10;99.90;;;;;;4944090;29;20399;-85
2022/06/05 09:25:28;;;;;;;70.03;19.67;;;20.00;99.90;;;;;;4927991;29;20429;-86
2022/06/05 09:28:28;;;;;;;68.50;16.43;;;20.20;99.90;;;;;;4925606;29;20422;-86
2022/06/05 09:31:20;;;;;;;73.17;16.33;;;20.40;99.90;;;;;;4884626;29;20424;-86
2022/06/05 09:33:48;;;;;;;72.27;20.67;;;20.40;99.90;;;;;;4939918;29;20439;-86
2022/06/05 09:36:18;;;;;;;71.00;21.53;;;20.30;99.90;;;;;;4942932;29;20440;-87
2022/06/05 09:38:49;;;;;;;73.87;22.63;;;20.40;99.90;;;;;;4946130;29;20410;-86
2022/06/05 09:41:18;;;;;;;84.37;52.13;;;20.40;99.90;;;;;;4941427;29;20725;-86
2022/06/05 09:43:50;;;;;;;78.77;42.80;;;20.30;99.90;;;;;;4939095;29;20401;-86
2022/06/05 09:46:43;;;;;;;83.07;43.90;;;20.40;99.90;;;;;;4944483;29;20824;-86
2022/06/05 09:49:35;;;;;;;75.37;31.20;;;20.60;99.90;;;;;;4946964;29;20421;-87
2022/06/05 09:52:34;;;;;;;76.40;28.97;;;20.60;99.90;;;;;;4940505;29;20424;-87
2022/06/05 09:55:28;;;;;;;71.60;24.87;;;20.60;99.90;;;;;;4917052;29;20420;-86
2022/06/05 09:58:40;;;;;;;77.13;31.60;;;20.60;99.90;;;;;;4930457;29;20455;-86
2022/06/05 10:01:34;;;;;;;72.83;22.50;;;20.50;99.90;;;;;;4947485;29;20400;-85
2022/06/05 10:04:05;;;;;;;71.83;24.70;;;20.50;99.90;;;;;;4929475;29;20399;-86
2022/06/05 10:06:50;;;;;;;74.27;27.80;;;20.50;99.90;;;;;;4948025;29;20427;-86
2022/06/05 10:09:19;;;;;;;70.80;21.77;;;20.40;99.90;;;;;;4947249;29;20392;-85
2022/06/05 10:11:57;;;;;;;73.93;25.97;;;20.30;99.90;;;;;;4947379;29;20418;-86
2022/06/05 10:14:51;;;;;;;72.90;27.67;;;20.40;99.90;;;;;;4928232;29;20506;-85
2022/06/05 10:17:36;;;;;;;72.43;25.03;;;20.20;99.90;;;;;;4943384;29;20437;-85
2022/06/05 10:20:16;;;;;;;73.37;27.43;;;20.20;99.90;;;;;;4944937;29;20419;-86
2022/06/05 10:22:46;;;;;;;74.83;33.90;;;20.30;99.90;;;;;;4949530;29;20407;-85
2022/06/05 10:25:35;;;;;;;74.90;31.90;;;20.30;99.90;;;;;;4951091;29;20417;-85
2022/06/05 10:28:10;;;;;;;73.90;26.00;;;20.40;99.90;;;;;;4934302;29;20492;-85
2022/06/05 10:30:58;;;;;;;70.37;18.30;;;20.50;99.90;;;;;;4950737;29;20399;-85
2022/06/05 10:33:30;;;;;;;71.77;20.30;;;20.50;99.90;;;;;;4936657;29;20399;-86
2022/06/05 10:36:14;;;;;;;71.37;23.07;;;20.50;99.90;;;;;;4949882;29;20420;-85
2022/06/05 10:39:00;;;;;;;75.23;30.40;;;20.60;99.90;;;;;;4950818;29;20522;-85
2022/06/05 10:41:48;;;;;;;78.97;38.97;;;20.60;99.90;;;;;;4947260;29;20851;-84
2022/06/05 10:44:19;;;;;;;77.13;36.47;;;21.00;99.90;;;;;;4942003;29;20392;-85
2022/06/05 10:47:11;;;;;;;73.47;24.57;;;21.50;99.90;;;;;;4942301;29;20426;-85
2022/06/05 10:50:05;;;;;;;66.43;11.53;;;21.60;99.90;;;;;;4942205;29;20399;-84
2022/06/05 10:52:38;;;;;;;67.07;12.07;;;21.60;99.90;;;;;;4944019;29;20393;-84
2022/06/05 10:55:38;;;;;;;67.57;12.17;;;21.90;99.90;;;;;;4943339;29;20408;-84
2022/06/05 10:58:24;;;;;;;69.70;16.43;;;22.00;99.90;;;;;;4943096;29;20442;-84
2022/06/05 11:00:50;;;;;;;70.70;16.07;;;22.10;99.90;;;;;;4944113;29;20506;-84
2022/06/05 11:03:57;;;;;;;67.77;13.67;;;22.30;99.90;;;;;;4945376;29;20749;-85
2022/06/05 11:06:44;;;;;;;69.23;16.10;;;22.20;99.90;;;;;;4943103;29;20233;-85
2022/06/05 11:09:46;;;;;;;69.10;15.40;;;22.30;99.90;;;;;;4953635;29;20391;-86
2022/06/05 11:15:51;;;;;;;67.90;11.80;;;22.30;99.90;;;;;;4948943;29;20440;-85
2022/06/05 11:18:18;;;;;;;67.20;14.30;;;22.60;99.90;;;;;;4948009;29;20421;-84
2022/06/05 11:20:54;;;;;;;67.07;11.10;;;22.50;99.90;;;;;;4947493;29;20870;-85
2022/06/05 11:23:23;;;;;;;72.53;13.97;;;22.50;99.90;;;;;;4947151;29;20475;-84
2022/06/05 11:25:55;;;;;;;68.07;14.13;;;22.40;99.90;;;;;;4929353;29;20484;-85
2022/06/05 11:28:42;;;;;;;68.20;12.70;;;22.30;99.90;;;;;;4946308;29;20389;-85
2022/06/05 11:31:36;;;;;;;69.37;13.87;;;22.20;99.90;;;;;;4927774;29;20776;-85
2022/06/05 11:34:23;;;;;;;68.60;15.27;;;22.50;99.90;;;;;;4928415;29;20460;-86
2022/06/05 11:37:09;;;;;;;69.43;15.83;;;22.70;99.90;;;;;;4926735;29;20499;-85
2022/06/05 11:39:54;;;;;;;68.93;16.67;;;22.90;99.90;;;;;;4943940;29;20883;-84
2022/06/05 11:42:23;;;;;;;70.30;12.60;;;23.20;99.90;;;;;;4944241;29;20399;-85
2022/06/05 11:45:00;;;;;;;68.83;11.17;;;23.50;99.90;;;;;;4945735;29;20404;-85
2022/06/05 11:47:34;;;;;;;68.57;12.90;;;23.30;99.90;;;;;;4930934;29;20400;-85
2022/06/05 11:50:06;;;;;;;68.97;10.83;;;23.10;99.90;;;;;;4928186;29;20412;-85
2022/06/05 11:55:15;;;;;;;69.47;14.03;;;23.20;99.90;;;;;;4942505;29;20459;-85
2022/06/05 11:57:46;;;;;;;69.60;12.70;;;23.20;99.90;;;;;;4928353;29;20513;-86
2022/06/05 12:00:19;;;;;;;69.40;14.50;;;23.20;99.90;;;;;;4944453;29;20385;-86
2022/06/05 12:03:22;;;;;;;69.27;14.40;;;23.20;99.90;;;;;;4945036;29;20409;-85
2022/06/05 12:06:03;;;;;;;68.17;14.63;;;23.10;99.90;;;;;;4944581;29;20427;-85
2022/06/05 12:08:47;;;;;;;70.30;14.83;;;22.80;99.90;;;;;;4926549;29;20404;-85
2022/06/05 12:11:15;;;;;;;70.40;14.80;;;22.80;99.90;;;;;;4944218;29;20381;-85
2022/06/05 12:14:06;;;;;;;68.10;14.63;;;22.70;99.90;;;;;;4926161;29;20405;-85
2022/06/05 12:17:17;;;;;;;67.57;14.37;;;22.60;99.90;;;;;;4944546;29;20508;-85
2022/06/05 12:20:25;;;;;;;68.60;13.00;;;22.70;99.90;;;;;;4938868;29;20417;-86
2022/06/05 12:23:21;;;;;;;69.67;14.70;;;22.90;99.90;;;;;;4936409;29;20404;-85
2022/06/05 12:26:16;;;;;;;68.67;13.80;;;23.30;99.90;;;;;;4938397;29;20461;-85
2022/06/05 12:28:52;;;;;;;68.97;14.83;;;23.30;99.90;;;;;;4943462;29;20396;-85
2022/06/05 12:31:26;;;;;;;68.70;13.87;;;22.90;99.90;;;;;;4944314;29;20440;-85
2022/06/05 12:33:58;;;;;;;69.20;15.93;;;23.10;99.90;;;;;;4944481;29;20452;-86
2022/06/05 12:37:14;;;;;;;68.40;14.37;;;23.20;99.90;;;;;;4925522;29;20484;-85
2022/06/05 12:39:49;;;;;;;70.73;14.37;;;23.40;99.90;;;;;;4832166;29;20409;-84
2022/06/05 12:42:29;;;;;;;70.47;14.10;;;23.40;99.90;;;;;;4836250;29;20435;-85
2022/06/05 12:44:55;;;;;;;68.50;14.10;;;23.40;99.90;;;;;;4894132;29;20445;-85
2022/06/05 12:47:45;;;;;;;68.47;13.23;;;23.60;99.90;;;;;;4946170;29;20436;-86
2022/06/05 12:50:36;;;;;;;68.57;14.43;;;23.40;99.90;;;;;;4941327;29;20392;-84
2022/06/05 12:53:10;;;;;;;69.40;15.10;;;23.20;99.90;;;;;;4942177;29;20515;-85
2022/06/05 12:55:54;;;;;;;69.37;15.43;;;23.30;99.90;;;;;;4925490;29;20475;-85
2022/06/05 12:58:26;;;;;;;68.73;15.77;;;23.00;99.90;;;;;;4942990;29;20397;-84
2022/06/05 13:01:18;;;;;;;69.40;15.43;;;22.90;99.90;;;;;;4942015;29;20392;-85
2022/06/05 13:04:02;;;;;;;70.20;16.60;;;22.70;99.90;;;;;;4925936;29;20405;-85
2022/06/05 13:06:51;;;;;;;70.50;19.47;;;22.60;99.90;;;;;;4941761;29;20432;-85
2022/06/05 13:09:41;;;;;;;69.83;16.60;;;22.40;99.90;;;;;;4942110;29;20397;-85
2022/06/05 13:12:15;;;;;;;71.00;18.40;;;22.50;99.90;;;;;;4941925;29;20420;-84
2022/06/05 13:14:52;;;;;;;69.23;18.47;;;22.40;99.90;;;;;;4924689;29;20464;-85
2022/06/05 13:17:36;;;;;;;70.50;16.00;;;22.30;99.90;;;;;;4938605;29;20440;-85
2022/06/05 13:20:20;;;;;;;73.73;24.20;;;22.10;99.90;;;;;;4920100;29;20448;-86
2022/06/05 13:23:18;;;;;;;71.40;21.17;;;22.10;99.90;;;;;;4920657;29;20423;-85
2022/06/05 13:26:07;;;;;;;71.03;20.73;;;22.10;99.90;;;;;;4933382;29;20550;-85
2022/06/05 13:28:54;;;;;;;71.97;18.13;;;22.00;99.90;;;;;;4941993;29;20412;-85
2022/06/05 13:31:34;;;;;;;69.40;17.13;;;22.00;99.90;;;;;;4939823;29;20381;-85
2022/06/05 13:34:21;;;;;;;69.30;19.87;;;21.90;99.90;;;;;;4939808;29;20389;-87
2022/06/05 13:37:09;;;;;;;73.10;29.33;;;21.70;99.90;;;;;;4925514;29;20460;-87